createdAt,value
2023-02-24T00:01:25.317Z,2.85
2023-02-24T00:03:52.320Z,2.84
2023-02-24T00:06:18.853Z,2.85
2023-02-24T00:08:45.309Z,2.79
2023-02-24T00:11:13.221Z,2.71
2023-02-24T00:13:40.369Z,2.65
2023-02-24T00:16:07.463Z,2.63
2023-02-24T00:18:34.065Z,2.56
2023-02-24T00:21:05.551Z,2.54
2023-02-24T00:23:31.898Z,2.55
2023-02-24T00:26:00.007Z,2.55
2023-02-24T00:28:28.219Z,2.56
2023-02-24T00:30:55.929Z,2.56
2023-02-24T00:33:24.581Z,2.55
2023-02-24T00:35:51.434Z,2.56
2023-02-24T00:38:17.799Z,2.56
2023-02-24T00:40:47.949Z,2.58
2023-02-24T00:43:14.288Z,2.58
2023-02-24T00:45:40.641Z,2.57
2023-02-24T00:48:10.544Z,2.57
2023-02-24T00:50:38.978Z,2.58
2023-02-24T00:53:06.525Z,2.62
2023-02-24T00:55:36.412Z,2.60
2023-02-24T00:58:07.313Z,2.63
2023-02-24T01:00:36.573Z,2.60
2023-02-24T01:03:03.561Z,2.59
2023-02-24T01:05:29.891Z,2.58
2023-02-24T01:07:56.613Z,2.60
2023-02-24T01:10:23.443Z,2.57
2023-02-24T01:12:50.000Z,2.61
2023-02-24T01:15:19.064Z,2.57
2023-02-24T01:17:45.370Z,2.58
2023-02-24T01:20:16.596Z,2.60
2023-02-24T01:22:43.892Z,2.60
2023-02-24T01:25:11.170Z,2.62
2023-02-24T01:27:37.680Z,2.63
2023-02-24T01:30:04.989Z,2.65
2023-02-24T01:32:34.214Z,2.66
2023-02-24T01:35:00.605Z,2.66
2023-02-24T01:37:30.411Z,2.65
2023-02-24T01:39:56.746Z,2.67
2023-02-24T01:42:23.432Z,2.68
2023-02-24T01:44:51.897Z,2.70
2023-02-24T01:47:22.263Z,2.67
2023-02-24T01:49:52.498Z,2.66
2023-02-24T01:52:18.788Z,2.65
2023-02-24T01:54:47.699Z,2.67
2023-02-24T01:57:17.177Z,2.65
2023-02-24T01:59:48.057Z,2.66
2023-02-24T02:02:15.436Z,2.62
2023-02-24T02:04:45.126Z,2.58
2023-02-24T02:07:12.587Z,2.56
2023-02-24T02:09:41.563Z,2.55
2023-02-24T02:12:09.468Z,2.54
2023-02-24T02:14:37.606Z,2.56
2023-02-24T02:17:16.139Z,2.55
2023-02-24T02:20:01.289Z,2.56
2023-02-24T02:22:45.920Z,2.56
2023-02-24T02:25:12.609Z,2.57
2023-02-24T02:27:51.157Z,2.57
2023-02-24T02:30:31.213Z,2.58
2023-02-24T02:33:06.800Z,2.58
2023-02-24T02:35:36.964Z,2.59
2023-02-24T02:38:06.315Z,2.60
2023-02-24T02:40:37.503Z,2.57
2023-02-24T02:43:25.847Z,2.56
2023-02-24T02:46:15.659Z,2.53
2023-02-24T02:48:59.236Z,2.55
2023-02-24T02:51:38.671Z,2.53
2023-02-24T02:54:10.181Z,2.50
2023-02-24T02:56:38.866Z,2.47
2023-02-24T02:59:08.290Z,2.47
2023-02-24T03:01:37.708Z,2.46
2023-02-24T03:04:06.373Z,2.46
2023-02-24T03:06:34.082Z,2.47
2023-02-24T03:09:20.644Z,2.50
2023-02-24T03:11:59.249Z,2.52
2023-02-24T03:14:28.224Z,2.51
2023-02-24T03:16:55.861Z,2.50
2023-02-24T03:19:26.426Z,2.50
2023-02-24T03:21:59.571Z,2.50
2023-02-24T03:24:27.952Z,2.48
2023-02-24T03:27:00.525Z,2.45
2023-02-24T03:29:33.009Z,2.46
2023-02-24T03:32:02.878Z,2.48
2023-02-24T03:34:33.495Z,2.54
2023-02-24T03:37:00.047Z,2.55
2023-02-24T03:39:26.379Z,2.56
2023-02-24T03:41:58.338Z,2.56
2023-02-24T03:44:24.984Z,2.55
2023-02-24T03:46:52.542Z,2.55
2023-02-24T03:49:18.928Z,2.54
2023-02-24T03:52:03.741Z,2.52
2023-02-24T03:54:43.746Z,2.52
2023-02-24T03:57:18.879Z,2.50
2023-02-24T03:59:47.933Z,2.47
2023-02-24T04:02:23.413Z,2.46
2023-02-24T04:04:55.626Z,2.47
2023-02-24T04:07:37.160Z,2.46
2023-02-24T04:10:35.678Z,2.44
2023-02-24T04:13:07.377Z,2.41
2023-02-24T04:15:44.328Z,2.40
2023-02-24T04:18:15.571Z,2.39
2023-02-24T04:20:43.723Z,2.41
2023-02-24T04:23:16.169Z,2.43
2023-02-24T04:25:44.831Z,2.46
2023-02-24T04:28:11.972Z,2.49
2023-02-24T04:30:40.818Z,2.49
2023-02-24T04:33:07.796Z,2.49
2023-02-24T04:35:34.361Z,2.52
2023-02-24T04:38:00.722Z,2.50
2023-02-24T04:40:27.093Z,2.46
2023-02-24T04:42:54.079Z,2.45
2023-02-24T04:45:30.219Z,2.45
2023-02-24T04:48:00.795Z,2.45
2023-02-24T04:50:28.418Z,2.46
2023-02-24T04:52:56.053Z,2.42
2023-02-24T04:55:23.502Z,2.40
2023-02-24T04:57:52.663Z,2.28
2023-02-24T05:00:22.801Z,2.24
2023-02-24T05:02:50.323Z,2.19
2023-02-24T05:05:17.721Z,2.13
2023-02-24T05:07:47.713Z,2.09
2023-02-24T05:10:15.327Z,2.04
2023-02-24T05:12:42.219Z,2.02
2023-02-24T05:15:08.942Z,1.99
2023-02-24T05:17:38.267Z,1.97
2023-02-24T05:20:23.867Z,1.95
2023-02-24T05:22:53.553Z,1.95
2023-02-24T05:25:20.461Z,1.90
2023-02-24T05:27:47.417Z,1.87
2023-02-24T05:30:14.505Z,1.86
2023-02-24T05:32:40.974Z,1.83
2023-02-24T05:35:07.595Z,1.83
2023-02-24T05:37:37.442Z,1.80
2023-02-24T05:40:04.354Z,1.76
2023-02-24T05:42:35.066Z,1.67
2023-02-24T05:45:01.725Z,1.67
2023-02-24T05:47:28.374Z,1.65
2023-02-24T05:49:56.885Z,1.57
2023-02-24T05:52:23.274Z,1.48
2023-02-24T05:54:49.861Z,1.50
2023-02-24T05:57:20.922Z,1.46
2023-02-24T05:59:50.814Z,1.46
2023-02-24T06:02:18.196Z,1.42
2023-02-24T06:04:50.798Z,1.43
2023-02-24T06:07:24.590Z,1.43
2023-02-24T06:09:56.556Z,1.39
2023-02-24T06:12:28.026Z,1.39
2023-02-24T06:14:54.695Z,1.42
2023-02-24T06:17:21.806Z,1.38
2023-02-24T06:19:50.346Z,1.36
2023-02-24T06:22:19.181Z,1.35
2023-02-24T06:24:46.039Z,1.36
2023-02-24T06:27:18.768Z,1.37
2023-02-24T06:29:45.886Z,1.32
2023-02-24T06:32:12.778Z,1.30
2023-02-24T06:34:39.547Z,1.29
2023-02-24T06:37:07.294Z,1.27
2023-02-24T06:39:36.593Z,1.31
2023-02-24T06:42:05.498Z,1.30
2023-02-24T06:44:32.581Z,1.30
2023-02-24T06:46:58.976Z,1.29
2023-02-24T06:49:26.673Z,1.32
2023-02-24T06:51:54.581Z,1.31
2023-02-24T06:54:22.431Z,1.30
2023-02-24T06:56:49.358Z,1.34
2023-02-24T06:59:21.588Z,1.35
2023-02-24T07:01:51.057Z,1.35
2023-02-24T07:04:17.724Z,1.32
2023-02-24T07:06:50.251Z,1.30
2023-02-24T07:09:16.979Z,1.33
2023-02-24T07:11:46.890Z,1.33
2023-02-24T07:14:13.404Z,1.34
2023-02-24T07:16:42.726Z,1.33
2023-02-24T07:19:11.345Z,1.33
2023-02-24T07:21:43.327Z,1.36
2023-02-24T07:24:13.381Z,1.36
2023-02-24T07:26:41.547Z,1.36
2023-02-24T07:29:09.166Z,1.35
2023-02-24T07:31:37.100Z,1.35
2023-02-24T07:34:03.856Z,1.35
2023-02-24T07:36:30.624Z,1.37
2023-02-24T07:38:58.738Z,1.37
2023-02-24T07:41:26.429Z,1.37
2023-02-24T07:43:53.745Z,1.37
2023-02-24T07:46:24.487Z,1.41
2023-02-24T07:48:54.295Z,1.40
2023-02-24T07:51:22.580Z,1.33
2023-02-24T07:53:52.286Z,1.28
2023-02-24T07:56:19.604Z,1.27
2023-02-24T07:58:53.484Z,1.20
2023-02-24T08:01:27.985Z,1.18
2023-02-24T08:04:01.049Z,1.16
2023-02-24T08:06:37.833Z,1.16
2023-02-24T08:09:17.485Z,1.14
2023-02-24T08:11:47.161Z,1.13
2023-02-24T08:14:14.038Z,1.12
2023-02-24T08:16:43.762Z,1.08
2023-02-24T08:19:13.311Z,1.07
2023-02-24T08:21:47.340Z,1.08
2023-02-24T08:24:17.855Z,1.09
2023-02-24T08:27:03.682Z,1.06
2023-02-24T08:29:40.127Z,1.06
2023-02-24T08:32:09.415Z,1.09
2023-02-24T08:34:36.603Z,1.13
2023-02-24T08:37:02.927Z,1.17
2023-02-24T08:39:36.407Z,1.19
2023-02-24T08:42:03.153Z,1.23
2023-02-24T08:44:29.463Z,1.23
2023-02-24T08:46:55.945Z,1.13
2023-02-24T08:49:24.895Z,1.14
2023-02-24T08:51:52.919Z,1.21
2023-02-24T08:54:31.922Z,1.19
2023-02-24T08:57:08.003Z,1.13
2023-02-24T08:59:40.215Z,1.15
2023-02-24T09:02:23.290Z,1.15
2023-02-24T09:04:54.317Z,1.19
2023-02-24T09:07:25.431Z,1.28
2023-02-24T09:09:58.244Z,1.32
2023-02-24T09:12:26.393Z,1.30
2023-02-24T09:14:55.447Z,1.30
2023-02-24T09:17:40.043Z,1.37
2023-02-24T09:20:29.829Z,1.47
2023-02-24T09:23:04.177Z,1.57
2023-02-24T09:25:40.998Z,1.66
2023-02-24T09:28:10.796Z,1.73
2023-02-24T09:30:39.239Z,1.75
2023-02-24T09:33:18.951Z,1.81
2023-02-24T09:35:46.807Z,1.89
2023-02-24T09:38:16.678Z,2.00
2023-02-24T09:40:50.788Z,2.06
2023-02-24T09:43:21.889Z,2.10
2023-02-24T09:45:54.414Z,2.14
2023-02-24T09:48:43.917Z,2.18
2023-02-24T09:51:23.004Z,2.15
2023-02-24T09:53:53.740Z,2.17
2023-02-24T09:56:22.242Z,2.24
2023-02-24T09:58:48.715Z,2.34
2023-02-24T10:01:33.932Z,2.42
2023-02-24T10:04:21.406Z,2.43
2023-02-24T10:06:48.943Z,2.49
2023-02-24T10:09:27.112Z,2.59
2023-02-24T10:12:04.189Z,2.76
2023-02-24T10:14:44.481Z,3.01
2023-02-24T10:17:23.367Z,3.20
2023-02-24T10:19:59.799Z,3.25
2023-02-24T10:22:40.358Z,3.37
2023-02-24T10:25:23.340Z,3.41
2023-02-24T10:27:58.427Z,3.44
2023-02-24T10:30:41.103Z,3.67
2023-02-24T10:33:18.619Z,3.84
2023-02-24T10:35:44.925Z,3.77
2023-02-24T10:38:11.492Z,3.66
2023-02-24T10:40:56.488Z,3.68
2023-02-24T10:43:30.589Z,3.81
2023-02-24T10:46:16.940Z,3.94
2023-02-24T10:48:50.554Z,3.90
2023-02-24T10:51:31.861Z,3.92
2023-02-24T10:54:33.627Z,3.93
2023-02-24T10:57:18.638Z,3.89
2023-02-24T11:00:18.869Z,3.95
2023-02-24T11:03:08.373Z,4.19
2023-02-24T11:05:44.258Z,4.28
2023-02-24T11:08:10.645Z,4.60
2023-02-24T11:10:52.984Z,4.88
2023-02-24T11:13:38.200Z,5.00
2023-02-24T11:16:26.067Z,5.27
2023-02-24T11:18:54.535Z,5.39
2023-02-24T11:21:23.092Z,5.40
2023-02-24T11:23:51.172Z,5.29
2023-02-24T11:26:23.247Z,5.24
2023-02-24T11:28:52.620Z,5.25
2023-02-24T11:31:25.631Z,5.35
2023-02-24T11:34:10.722Z,5.31
2023-02-24T11:36:41.312Z,5.27
2023-02-24T11:39:18.895Z,5.22
2023-02-24T11:41:50.914Z,5.15
2023-02-24T11:44:20.214Z,5.10
2023-02-24T11:46:54.579Z,5.14
2023-02-24T11:49:26.656Z,5.10
2023-02-24T11:51:54.220Z,5.01
2023-02-24T11:54:21.196Z,4.90
2023-02-24T11:56:50.109Z,4.73
2023-02-24T11:59:22.878Z,4.54
2023-02-24T12:02:08.012Z,4.38
2023-02-24T12:04:40.438Z,4.55
2023-02-24T12:07:15.629Z,4.78
2023-02-24T12:09:50.212Z,4.98
2023-02-24T12:12:16.519Z,5.10
2023-02-24T12:14:47.832Z,5.22
2023-02-24T12:17:32.789Z,5.71
2023-02-24T12:20:17.692Z,6.96
2023-02-24T12:22:47.353Z,7.77
2023-02-24T12:25:15.068Z,7.32
2023-02-24T12:27:49.046Z,6.65
2023-02-24T12:30:38.856Z,5.92
2023-02-24T12:33:05.450Z,6.04
2023-02-24T12:35:44.651Z,5.88
2023-02-24T12:38:46.407Z,5.67
2023-02-24T12:41:12.753Z,5.34
2023-02-24T12:43:45.472Z,5.20
2023-02-24T12:46:24.077Z,5.06
2023-02-24T12:49:11.943Z,4.84
2023-02-24T12:51:54.769Z,4.42
2023-02-24T12:54:39.360Z,4.14
2023-02-24T12:57:19.767Z,4.05
2023-02-24T12:59:46.721Z,4.06
2023-02-24T13:02:31.618Z,4.08
2023-02-24T13:05:16.889Z,4.37
2023-02-24T13:08:01.417Z,4.66
2023-02-24T13:10:27.720Z,4.67
2023-02-24T13:13:02.434Z,4.67
2023-02-24T13:15:33.529Z,4.88
2023-02-24T13:17:59.912Z,5.87
2023-02-24T13:20:34.317Z,6.86
2023-02-24T13:23:01.870Z,6.86
2023-02-24T13:25:37.499Z,6.82
2023-02-24T13:28:05.937Z,6.99
2023-02-24T13:30:37.253Z,7.43
2023-02-24T13:33:03.666Z,7.35
2023-02-24T13:35:32.002Z,7.34
2023-02-24T13:38:07.496Z,6.80
2023-02-24T13:40:33.852Z,6.64
2023-02-24T13:43:01.706Z,6.32
2023-02-24T13:45:29.140Z,6.39
2023-02-24T13:48:13.970Z,6.40
2023-02-24T13:51:00.571Z,6.22
2023-02-24T13:53:45.641Z,6.07
2023-02-24T13:56:15.075Z,5.72
2023-02-24T13:58:45.945Z,5.53
2023-02-24T14:01:14.291Z,5.32
2023-02-24T14:03:41.699Z,5.12
2023-02-24T14:06:25.916Z,5.01
2023-02-24T14:08:57.617Z,4.92
2023-02-24T14:11:26.899Z,4.84
2023-02-24T14:13:54.209Z,4.88
2023-02-24T14:16:23.923Z,4.83
2023-02-24T14:19:03.739Z,4.84
2023-02-24T14:21:31.558Z,5.00
2023-02-24T14:24:10.641Z,5.13
2023-02-24T14:26:45.353Z,5.06
2023-02-24T14:29:13.976Z,5.00
2023-02-24T14:31:41.252Z,5.01
2023-02-24T14:34:15.873Z,5.02
2023-02-24T14:36:43.849Z,5.48
2023-02-24T14:39:15.975Z,5.72
2023-02-24T14:41:42.769Z,5.61
2023-02-24T14:44:29.319Z,5.36
2023-02-24T14:46:56.895Z,5.27
2023-02-24T14:49:25.148Z,5.13
2023-02-24T14:51:58.761Z,5.04
2023-02-24T14:54:33.414Z,4.90
2023-02-24T14:57:00.328Z,4.82
2023-02-24T14:59:33.459Z,4.77
2023-02-24T15:02:02.556Z,4.66
2023-02-24T15:04:28.951Z,4.63
2023-02-24T15:06:55.351Z,5.07
2023-02-24T15:09:23.655Z,5.20
2023-02-24T15:11:50.998Z,5.40
2023-02-24T15:14:25.224Z,5.62
2023-02-24T15:16:53.523Z,5.70
2023-02-24T15:19:33.727Z,5.81
2023-02-24T15:22:00.112Z,5.70
2023-02-24T15:24:28.277Z,5.44
2023-02-24T15:26:59.313Z,5.12
2023-02-24T15:29:27.747Z,4.92
2023-02-24T15:31:55.374Z,4.79
2023-02-24T15:34:34.780Z,4.72
2023-02-24T15:37:04.262Z,4.66
2023-02-24T15:39:32.102Z,4.62
2023-02-24T15:42:07.208Z,4.63
2023-02-24T15:44:34.918Z,4.58
2023-02-24T15:47:18.964Z,4.55
2023-02-24T15:49:45.259Z,4.51
2023-02-24T15:52:11.670Z,4.50
2023-02-24T15:54:39.305Z,4.47
2023-02-24T15:57:06.132Z,4.45
2023-02-24T15:59:32.510Z,4.48
2023-02-24T16:01:58.845Z,4.42
2023-02-24T16:04:26.785Z,4.29
2023-02-24T16:06:54.663Z,4.20
2023-02-24T16:09:27.517Z,4.13
2023-02-24T16:11:54.226Z,4.06
2023-02-24T16:14:20.705Z,3.96
2023-02-24T16:16:47.171Z,3.89
2023-02-24T16:19:15.029Z,3.81
2023-02-24T16:21:41.457Z,3.73
2023-02-24T16:24:07.877Z,3.62
2023-02-24T16:26:36.638Z,3.56
2023-02-24T16:29:03.509Z,3.50
2023-02-24T16:31:29.998Z,3.44
2023-02-24T16:33:58.279Z,3.29
2023-02-24T16:36:25.633Z,3.21
2023-02-24T16:38:52.294Z,3.11
2023-02-24T16:41:18.833Z,3.08
2023-02-24T16:43:45.149Z,3.06
2023-02-24T16:46:15.941Z,3.06
2023-02-24T16:48:44.799Z,3.03
2023-02-24T16:51:11.284Z,2.99
2023-02-24T16:53:38.080Z,2.98
2023-02-24T16:56:04.843Z,2.96
2023-02-24T16:58:31.705Z,2.91
2023-02-24T17:01:00.249Z,2.91
2023-02-24T17:03:28.607Z,2.89
2023-02-24T17:05:54.912Z,2.88
2023-02-24T17:08:21.648Z,2.85
2023-02-24T17:10:48.582Z,2.82
2023-02-24T17:13:16.272Z,2.79
2023-02-24T17:15:42.848Z,2.76
2023-02-24T17:18:09.681Z,2.72
2023-02-24T17:20:36.511Z,2.75
2023-02-24T17:23:02.888Z,2.69
2023-02-24T17:25:30.508Z,2.66
2023-02-24T17:27:58.277Z,2.65
2023-02-24T17:30:29.218Z,2.66
2023-02-24T17:32:55.696Z,2.63
2023-02-24T17:35:22.692Z,2.61
2023-02-24T17:37:49.149Z,2.63
2023-02-24T17:40:15.730Z,2.64
2023-02-24T17:42:42.125Z,2.66
2023-02-24T17:45:09.218Z,2.67
2023-02-24T17:47:35.700Z,2.70
2023-02-24T17:50:02.579Z,2.73
2023-02-24T17:52:30.629Z,2.76
2023-02-24T17:54:57.148Z,2.80
2023-02-24T17:57:23.605Z,2.81
2023-02-24T17:59:49.922Z,2.78
2023-02-24T18:02:17.259Z,2.78
2023-02-24T18:04:43.728Z,2.75
2023-02-24T18:07:10.735Z,2.73
2023-02-24T18:09:37.078Z,2.71
2023-02-24T18:12:04.026Z,2.71
2023-02-24T18:14:30.582Z,2.69
2023-02-24T18:16:56.899Z,2.67
2023-02-24T18:19:23.475Z,2.68
2023-02-24T18:21:49.891Z,2.68
2023-02-24T18:24:16.316Z,2.68
2023-02-24T18:26:42.746Z,2.60
2023-02-24T18:29:09.070Z,2.52
2023-02-24T18:31:35.607Z,2.45
2023-02-24T18:34:02.158Z,2.44
2023-02-24T18:36:28.566Z,2.38
2023-02-24T18:38:56.353Z,2.34
2023-02-24T18:41:23.518Z,2.33
2023-02-24T18:43:54.385Z,2.34
2023-02-24T18:46:21.792Z,2.39
2023-02-24T18:48:50.162Z,2.40
2023-02-24T18:51:18.482Z,2.36
2023-02-24T18:53:45.283Z,2.38
2023-02-24T18:56:19.002Z,2.40
2023-02-24T18:58:45.943Z,2.40
2023-02-24T19:01:23.570Z,2.39
2023-02-24T19:03:50.982Z,2.41
2023-02-24T19:06:21.492Z,2.38
2023-02-24T19:08:49.151Z,2.41
2023-02-24T19:11:25.787Z,2.43
2023-02-24T19:13:53.019Z,2.39
2023-02-24T19:16:19.678Z,2.38
2023-02-24T19:18:49.359Z,2.37
2023-02-24T19:21:15.734Z,2.32
2023-02-24T19:23:42.048Z,2.39
2023-02-24T19:26:15.118Z,2.40
2023-02-24T19:28:41.435Z,2.39
2023-02-24T19:31:13.122Z,2.33
2023-02-24T19:33:39.523Z,2.31
2023-02-24T19:36:05.964Z,2.36
2023-02-24T19:41:12.740Z,2.29
2023-02-24T19:43:41.971Z,2.27
2023-02-24T19:46:09.471Z,2.30
2023-02-24T19:48:35.997Z,2.34
2023-02-24T19:51:13.245Z,2.31
2023-02-24T19:53:40.159Z,2.31
2023-02-24T19:56:06.724Z,2.34
2023-02-24T19:58:33.340Z,2.31
2023-02-24T20:01:06.765Z,2.39
2023-02-24T20:03:33.121Z,2.37
2023-02-24T20:05:59.580Z,2.28
2023-02-24T20:08:25.908Z,2.25
2023-02-24T20:11:01.735Z,2.17
2023-02-24T20:13:28.228Z,2.23
2023-02-24T20:16:03.370Z,2.27
2023-02-24T20:18:29.679Z,2.14
2023-02-24T20:20:59.208Z,2.17
2023-02-24T20:23:25.673Z,2.16
2023-02-24T20:25:55.917Z,2.20
2023-02-24T20:28:22.663Z,2.24
2023-02-24T20:30:49.471Z,2.20
2023-02-24T20:33:16.453Z,2.21
2023-02-24T20:35:42.796Z,2.20
2023-02-24T20:38:09.304Z,2.14
2023-02-24T20:40:36.769Z,2.12
2023-02-24T20:43:04.776Z,2.01
2023-02-24T20:45:32.113Z,1.86
2023-02-24T20:47:58.518Z,1.81
2023-02-24T20:50:24.957Z,1.78
2023-02-24T20:52:51.298Z,1.75
2023-02-24T20:55:17.782Z,1.68
2023-02-24T20:57:44.120Z,1.69
2023-02-24T21:00:10.850Z,1.73
2023-02-24T21:02:40.243Z,1.71
2023-02-24T21:05:07.377Z,1.68
2023-02-24T21:07:36.066Z,1.65
2023-02-24T21:10:03.335Z,1.65
2023-02-24T21:12:29.694Z,1.63
2023-02-24T21:14:56.091Z,1.65
2023-02-24T21:17:22.436Z,1.61
2023-02-24T21:19:49.796Z,1.66
2023-02-24T21:22:16.197Z,1.63
2023-02-24T21:24:42.830Z,1.61
2023-02-24T21:27:09.861Z,1.54
2023-02-24T21:29:36.201Z,1.62
2023-02-24T21:32:03.299Z,1.63
2023-02-24T21:34:30.519Z,1.61
2023-02-24T21:36:57.092Z,1.59
2023-02-24T21:39:23.375Z,1.59
2023-02-24T21:41:49.784Z,1.62
2023-02-24T21:44:16.185Z,1.65
2023-02-24T21:46:42.713Z,1.64
2023-02-24T21:49:14.225Z,1.64
2023-02-24T21:51:41.862Z,1.64
2023-02-24T21:54:12.473Z,1.62
2023-02-24T21:56:38.813Z,1.65
2023-02-24T21:59:06.266Z,1.61
2023-02-24T22:01:34.008Z,1.60
2023-02-24T22:04:01.578Z,1.59
2023-02-24T22:06:31.268Z,1.53
2023-02-24T22:08:58.046Z,1.52
2023-02-24T22:11:24.361Z,1.46
2023-02-24T22:13:50.729Z,1.35
2023-02-24T22:16:21.416Z,1.32
2023-02-24T22:18:48.250Z,1.24
2023-02-24T22:21:18.540Z,1.23
2023-02-24T22:23:45.434Z,1.22
2023-02-24T22:26:12.000Z,1.27
2023-02-24T22:28:39.739Z,1.22
2023-02-24T22:31:07.055Z,1.15
2023-02-24T22:33:34.954Z,1.18
2023-02-24T22:36:02.446Z,1.24
2023-02-24T22:38:32.659Z,1.32
2023-02-24T22:40:59.919Z,1.32
2023-02-24T22:43:26.656Z,1.29
2023-02-24T22:46:00.677Z,1.29
2023-02-24T22:48:27.926Z,1.33
2023-02-24T22:50:55.677Z,1.36
2023-02-24T22:53:22.179Z,1.39
2023-02-24T22:55:49.008Z,1.30
2023-02-24T22:58:16.045Z,1.31
2023-02-24T23:00:45.940Z,1.22
2023-02-24T23:03:12.955Z,1.16
2023-02-24T23:05:40.721Z,1.03
2023-02-24T23:08:10.062Z,1.06
2023-02-24T23:10:36.380Z,1.08
2023-02-24T23:13:02.755Z,0.99
2023-02-24T23:15:29.048Z,1.02
2023-02-24T23:17:55.390Z,1.06
2023-02-24T23:20:21.718Z,1.05
2023-02-24T23:22:53.129Z,1.03
2023-02-24T23:25:19.784Z,1.06
2023-02-24T23:27:46.093Z,1.07
2023-02-24T23:30:12.524Z,1.07
2023-02-24T23:32:38.947Z,1.01
2023-02-24T23:35:05.548Z,1.03
2023-02-24T23:37:32.041Z,1.02
2023-02-24T23:39:58.918Z,1.00
2023-02-24T23:42:25.247Z,1.01
2023-02-24T23:44:51.633Z,1.04
2023-02-24T23:47:17.990Z,0.99
2023-02-24T23:49:48.519Z,1.05
2023-02-24T23:52:15.245Z,1.03
2023-02-24T23:54:41.568Z,1.12
2023-02-24T23:57:07.903Z,1.03
2023-02-24T23:59:34.274Z,1.15
